Time;durP1;ratioP1;P1;durP2;ratioP2;P2;SDS_P1;SDS_P2;PMS_P1;PMS_P2;Temp;Humidity;BMP_temperature;BMP_pressure;BME280_temperature;BME280_humidity;BME280_pressure;Samples;Min_cycle;Max_cycle;Signal;HPM_P1;HPM_P2
2020/12/08 00:01:27;;;;;;;47.85;30.80;;;5.30;92.40;;;;;;5034464;28;20384;-77
2020/12/08 00:04:12;;;;;;;47.33;30.58;;;5.20;92.50;;;;;;5014423;28;20043;-76
2020/12/08 00:06:58;;;;;;;51.95;30.65;;;5.30;92.50;;;;;;5050568;28;20045;-76
2020/12/08 00:09:24;;;;;;;47.92;30.98;;;5.30;92.50;;;;;;5051925;28;20041;-77
2020/12/08 00:12:10;;;;;;;48.45;30.95;;;5.30;92.50;;;;;;5051196;28;20074;-77
2020/12/08 00:14:36;;;;;;;48.33;30.75;;;5.30;92.40;;;;;;5052218;28;20052;-77
2020/12/08 00:17:04;;;;;;;47.35;31.50;;;5.30;92.50;;;;;;5050715;28;20071;-77
2020/12/08 00:19:30;;;;;;;47.85;30.48;;;5.30;92.50;;;;;;5051669;28;20045;-76
2020/12/08 00:21:56;;;;;;;50.05;29.70;;;5.30;92.20;;;;;;5050787;28;20047;-76
2020/12/08 00:24:42;;;;;;;49.53;31.25;;;5.30;92.40;;;;;;5043088;28;20412;-76
2020/12/08 00:27:09;;;;;;;49.38;31.23;;;5.20;92.30;;;;;;5034302;28;20041;-76
2020/12/08 00:29:37;;;;;;;51.95;31.27;;;5.20;92.50;;;;;;5051591;28;20051;-77
2020/12/08 00:32:07;;;;;;;51.92;31.40;;;5.20;92.40;;;;;;5050971;28;20041;-77
2020/12/08 00:34:34;;;;;;;49.63;32.17;;;5.20;92.40;;;;;;5050735;28;20392;-78
2020/12/08 00:37:31;;;;;;;50.33;31.38;;;5.20;92.60;;;;;;5050753;28;20075;-78
2020/12/08 00:39:57;;;;;;;49.83;30.52;;;5.10;92.40;;;;;;5050359;28;20052;-78
2020/12/08 00:42:43;;;;;;;50.30;30.52;;;5.00;92.50;;;;;;5037252;28;20056;-77
2020/12/08 00:45:29;;;;;;;51.92;31.67;;;5.10;92.40;;;;;;5050633;28;20397;-77
2020/12/08 00:47:54;;;;;;;47.65;31.10;;;5.10;92.60;;;;;;5050467;28;20037;-78
2020/12/08 00:50:20;;;;;;;53.35;32.72;;;5.10;92.50;;;;;;5050347;28;20103;-79
2020/12/08 00:53:06;;;;;;;50.40;32.75;;;5.10;92.70;;;;;;5023667;28;20135;-78
2020/12/08 00:55:32;;;;;;;49.10;30.65;;;5.10;92.80;;;;;;5050260;28;20512;-80
2020/12/08 00:58:17;;;;;;;49.03;30.92;;;5.10;92.80;;;;;;5032836;28;20112;-79
2020/12/08 01:00:43;;;;;;;49.20;30.73;;;5.10;92.50;;;;;;5033863;28;20540;-79
2020/12/08 01:03:09;;;;;;;53.25;31.83;;;5.10;92.70;;;;;;5046973;28;20064;-79
2020/12/08 01:05:35;;;;;;;46.92;31.10;;;5.20;92.90;;;;;;5055402;28;20036;-77
2020/12/08 01:08:01;;;;;;;47.45;30.92;;;5.20;92.80;;;;;;5054102;28;20370;-76
2020/12/08 01:10:46;;;;;;;47.47;30.70;;;5.20;92.80;;;;;;5054211;28;20098;-77
2020/12/08 01:13:34;;;;;;;45.67;30.20;;;5.20;92.60;;;;;;5026448;28;20481;-77
2020/12/08 01:16:02;;;;;;;48.40;29.88;;;5.20;92.70;;;;;;5053629;28;20036;-77
2020/12/08 01:18:28;;;;;;;45.35;30.10;;;5.20;92.60;;;;;;5037208;28;20045;-77
2020/12/08 01:20:55;;;;;;;48.47;30.35;;;5.20;92.60;;;;;;5054703;28;20465;-77
2020/12/08 01:23:23;;;;;;;45.72;30.55;;;5.20;92.80;;;;;;5053673;28;20037;-76
2020/12/08 01:26:08;;;;;;;46.38;31.20;;;5.20;92.70;;;;;;5053691;28;20460;-77
2020/12/08 01:28:34;;;;;;;50.03;31.58;;;5.40;92.70;;;;;;5053627;28;20037;-77
2020/12/08 01:31:00;;;;;;;46.00;30.30;;;5.20;92.80;;;;;;5053383;28;20065;-77
2020/12/08 01:33:26;;;;;;;49.72;30.55;;;5.20;92.70;;;;;;5054663;28;20052;-76
2020/12/08 01:35:52;;;;;;;50.13;31.80;;;5.20;92.70;;;;;;5054266;28;20048;-77
2020/12/08 01:38:18;;;;;;;48.50;30.63;;;5.20;92.70;;;;;;5054461;28;20632;-76
2020/12/08 01:40:54;;;;;;;49.45;31.02;;;5.40;92.60;;;;;;5054400;28;20057;-76
2020/12/08 01:43:20;;;;;;;45.13;31.08;;;5.20;92.70;;;;;;5043796;28;20041;-76
2020/12/08 01:46:07;;;;;;;;;;;5.30;92.80;;;;;;5026221;28;20485;-79
2020/12/08 01:48:54;;;;;;;45.13;29.67;;;5.20;92.20;;;;;;5044784;28;19971;-79
2020/12/08 01:51:21;;;;;;;44.80;29.05;;;5.10;92.70;;;;;;5069241;28;20060;-79
2020/12/08 01:53:49;;;;;;;47.25;29.60;;;5.20;92.80;;;;;;5068390;28;20045;-77
2020/12/08 01:56:16;;;;;;;43.45;29.65;;;5.20;92.80;;;;;;5072650;28;20028;-76
2020/12/08 01:58:42;;;;;;;47.63;29.90;;;5.20;92.90;;;;;;5070309;28;20036;-76
2020/12/08 02:01:27;;;;;;;44.33;29.45;;;5.20;92.80;;;;;;5045813;28;20492;-76
2020/12/08 02:04:13;;;;;;;42.67;29.77;;;5.20;92.70;;;;;;5046017;28;20048;-78
2020/12/08 02:06:39;;;;;;;48.75;29.13;;;5.10;92.70;;;;;;5067540;28;20036;-78
2020/12/08 02:09:05;;;;;;;43.85;30.15;;;5.10;92.70;;;;;;5063215;28;20045;-77
2020/12/08 02:11:51;;;;;;;46.17;30.30;;;5.10;92.70;;;;;;5059524;28;20049;-77
2020/12/08 02:14:17;;;;;;;43.78;30.00;;;5.10;92.70;;;;;;5067415;28;20082;-78
2020/12/08 02:16:43;;;;;;;43.53;29.67;;;5.10;92.90;;;;;;5064120;28;20067;-78
2020/12/08 02:19:30;;;;;;;44.30;29.73;;;5.10;92.90;;;;;;5045277;28;20102;-78
2020/12/08 02:21:56;;;;;;;43.60;29.45;;;5.10;92.80;;;;;;5044372;28;20033;-78
2020/12/08 02:24:42;;;;;;;40.28;28.00;;;5.10;92.70;;;;;;5043863;28;20045;-78
2020/12/08 02:27:27;;;;;;;43.83;29.65;;;5.10;92.70;;;;;;5044004;28;20052;-78
2020/12/08 02:29:56;;;;;;;40.55;28.70;;;5.10;92.80;;;;;;5062306;28;20033;-77
2020/12/08 02:32:24;;;;;;;41.88;29.63;;;5.10;93.00;;;;;;5067254;28;20036;-78
2020/12/08 02:34:50;;;;;;;42.03;30.00;;;5.20;93.00;;;;;;5067281;28;20033;-78
2020/12/08 02:37:15;;;;;;;45.95;29.83;;;5.10;92.70;;;;;;5056785;28;20091;-78
2020/12/08 02:40:04;;;;;;;47.65;30.10;;;5.10;92.90;;;;;;5039245;28;20049;-78
2020/12/08 02:42:50;;;;;;;42.00;29.02;;;5.10;92.80;;;;;;5072352;28;20051;-75
2020/12/08 02:45:16;;;;;;;42.20;30.05;;;5.10;92.80;;;;;;5060849;28;20451;-76
2020/12/08 02:48:01;;;;;;;43.47;29.75;;;5.10;93.00;;;;;;5068755;28;20082;-75
2020/12/08 02:50:47;;;;;;;42.13;30.13;;;5.10;93.00;;;;;;5052063;28;20389;-76
2020/12/08 02:53:13;;;;;;;45.78;31.20;;;5.00;93.00;;;;;;5062486;28;20081;-78
2020/12/08 02:55:38;;;;;;;45.30;30.50;;;5.10;93.10;;;;;;5062905;28;20102;-76
2020/12/08 02:58:04;;;;;;;44.75;31.75;;;5.10;93.00;;;;;;5055106;28;20071;-78
2020/12/08 03:00:30;;;;;;;44.42;30.02;;;5.10;93.10;;;;;;5057203;28;20466;-79
2020/12/08 03:02:56;;;;;;;44.70;30.05;;;5.10;93.40;;;;;;5063984;28;20052;-76
2020/12/08 03:05:42;;;;;;;45.90;30.75;;;5.10;92.80;;;;;;5060693;28;20411;-78
2020/12/08 03:08:08;;;;;;;42.65;30.85;;;5.10;93.00;;;;;;5071831;28;20037;-78
2020/12/08 03:10:35;;;;;;;46.03;32.63;;;5.20;93.00;;;;;;5072532;28;20044;-76
2020/12/08 03:13:00;;;;;;;45.38;31.60;;;5.20;93.10;;;;;;5066189;28;20052;-76
2020/12/08 03:15:26;;;;;;;45.67;31.10;;;5.20;93.10;;;;;;5056660;28;20507;-78
2020/12/08 03:17:52;;;;;;;45.22;29.75;;;5.20;93.20;;;;;;5071725;28;20091;-79
2020/12/08 03:20:37;;;;;;;43.60;30.83;;;5.10;93.10;;;;;;5059600;28;20044;-77
2020/12/08 03:23:23;;;;;;;43.92;30.42;;;5.20;92.90;;;;;;5037289;28;20052;-77
2020/12/08 03:25:51;;;;;;;42.63;31.17;;;5.20;92.80;;;;;;5055539;28;20032;-77
2020/12/08 03:28:19;;;;;;;44.88;31.33;;;5.10;93.10;;;;;;5062825;28;20037;-77
2020/12/08 03:31:05;;;;;;;46.88;31.70;;;5.10;92.90;;;;;;5044112;28;20040;-78
2020/12/08 03:33:31;;;;;;;47.30;33.15;;;5.10;93.00;;;;;;5065559;28;20040;-78
2020/12/08 03:36:18;;;;;;;43.75;31.90;;;5.10;93.20;;;;;;5039836;28;20041;-78
2020/12/08 03:38:46;;;;;;;44.75;30.85;;;5.10;92.90;;;;;;5065070;28;20115;-77
2020/12/08 03:41:31;;;;;;;43.72;31.27;;;5.10;93.20;;;;;;5063628;28;20068;-79
2020/12/08 03:43:57;;;;;;;43.60;31.48;;;5.10;92.90;;;;;;5058773;28;20080;-77
2020/12/08 03:46:24;;;;;;;43.72;31.00;;;5.00;92.90;;;;;;5062401;28;20107;-79
2020/12/08 03:48:51;;;;;;;41.85;30.67;;;5.00;92.90;;;;;;5054045;28;20553;-80
2020/12/08 03:51:19;;;;;;;45.30;31.90;;;5.10;93.00;;;;;;5061899;28;20090;-80
2020/12/08 03:53:46;;;;;;;45.03;30.60;;;5.20;93.00;;;;;;5065131;28;20037;-80
2020/12/08 03:56:32;;;;;;;43.50;31.10;;;5.00;92.80;;;;;;5069048;28;20047;-77
2020/12/08 03:58:57;;;;;;;42.63;30.10;;;5.10;92.90;;;;;;5059604;28;20036;-79
2020/12/08 04:01:51;;;;;;;44.60;30.33;;;5.00;92.90;;;;;;5058580;28;20045;-79
2020/12/08 04:04:18;;;;;;;43.35;30.45;;;5.10;92.80;;;;;;5066954;28;20025;-80
2020/12/08 04:07:07;;;;;;;37.75;28.08;;;5.10;92.70;;;;;;5055438;28;20036;-77
2020/12/08 04:09:33;;;;;;;41.67;29.45;;;5.00;92.70;;;;;;5072139;28;20048;-77
2020/12/08 04:12:19;;;;;;;38.72;27.92;;;5.00;92.60;;;;;;5056483;28;20399;-79
2020/12/08 04:14:45;;;;;;;40.17;28.13;;;5.00;92.70;;;;;;5061962;28;20071;-78
2020/12/08 04:17:10;;;;;;;43.92;29.13;;;5.00;92.60;;;;;;5069169;28;20032;-76
2020/12/08 04:19:36;;;;;;;40.60;27.67;;;5.00;92.60;;;;;;5066528;28;20560;-76
2020/12/08 04:22:22;;;;;;;44.08;28.17;;;4.90;92.60;;;;;;5068967;28;20484;-78
2020/12/08 04:24:48;;;;;;;34.35;26.40;;;4.90;92.60;;;;;;5060172;28;20044;-76
2020/12/08 04:27:33;;;;;;;38.88;27.80;;;4.80;92.60;;;;;;5069935;28;20055;-77
2020/12/08 04:30:19;;;;;;;38.25;27.40;;;5.00;92.50;;;;;;5054847;28;20178;-76
2020/12/08 04:32:45;;;;;;;37.40;26.80;;;4.80;92.40;;;;;;5064563;28;20508;-77
2020/12/08 04:35:11;;;;;;;34.60;26.13;;;4.80;92.50;;;;;;5059869;28;20121;-77
2020/12/08 04:37:57;;;;;;;35.53;25.25;;;4.80;92.30;;;;;;5043029;28;20112;-77
2020/12/08 04:40:24;;;;;;;31.42;24.92;;;4.40;92.40;;;;;;5066327;28;20086;-77
2020/12/08 04:43:09;;;;;;;35.28;24.90;;;4.70;92.50;;;;;;5074550;28;20047;-77
2020/12/08 04:45:36;;;;;;;38.75;25.63;;;4.70;92.30;;;;;;5063683;28;20048;-77
2020/12/08 04:48:07;;;;;;;36.95;25.20;;;4.70;92.30;;;;;;5061683;28;20111;-77
2020/12/08 04:50:34;;;;;;;35.78;26.05;;;4.70;92.40;;;;;;5062444;28;20041;-77
2020/12/08 04:53:00;;;;;;;35.10;25.45;;;4.60;92.50;;;;;;5059235;28;20078;-77
2020/12/08 04:55:26;;;;;;;35.20;26.52;;;4.60;92.40;;;;;;5066217;28;20029;-77
2020/12/08 04:57:53;;;;;;;34.72;26.63;;;4.60;92.70;;;;;;5074066;28;20145;-77
2020/12/08 05:00:19;;;;;;;34.42;25.30;;;4.60;92.50;;;;;;5061032;28;20174;-77
2020/12/08 05:02:55;;;;;;;37.47;26.33;;;4.60;92.40;;;;;;5069159;28;20057;-78
2020/12/08 05:05:42;;;;;;;40.25;26.50;;;4.60;92.50;;;;;;5055983;28;20040;-77
2020/12/08 05:08:10;;;;;;;37.70;25.58;;;4.50;92.40;;;;;;5074123;28;20082;-76
2020/12/08 05:10:36;;;;;;;36.22;25.17;;;4.60;92.50;;;;;;5074024;28;20124;-77
2020/12/08 05:13:26;;;;;;;38.35;26.10;;;4.70;92.50;;;;;;5073471;28;20080;-77
2020/12/08 05:15:59;;;;;;;36.55;25.85;;;4.60;92.60;;;;;;5061555;28;20033;-78
2020/12/08 05:18:45;;;;;;;37.97;26.10;;;4.60;92.50;;;;;;5069510;28;20127;-78
2020/12/08 05:21:12;;;;;;;35.55;25.35;;;4.60;92.60;;;;;;5062114;28;20115;-78
2020/12/08 05:23:57;;;;;;;33.95;25.40;;;4.60;92.60;;;;;;5070739;28;20036;-78
2020/12/08 05:26:23;;;;;;;35.00;24.73;;;4.60;92.60;;;;;;5062859;28;20437;-78
2020/12/08 05:28:58;;;;;;;36.40;24.02;;;4.60;92.50;;;;;;5068713;28;20463;-78
2020/12/08 05:31:44;;;;;;;35.75;24.92;;;4.60;92.50;;;;;;5049625;28;20048;-75
2020/12/08 05:34:33;;;;;;;39.53;26.58;;;4.60;92.50;;;;;;5064701;28;20459;-76
2020/12/08 05:37:01;;;;;;;36.30;25.92;;;4.60;92.60;;;;;;5054615;28;20033;-78
2020/12/08 05:39:27;;;;;;;36.53;25.75;;;4.60;92.60;;;;;;5073160;28;20511;-78
2020/12/08 05:41:53;;;;;;;36.58;26.17;;;4.60;92.60;;;;;;5066591;28;20124;-78
2020/12/08 05:44:23;;;;;;;37.47;26.08;;;4.60;92.60;;;;;;5053175;28;20108;-77
2020/12/08 05:46:53;;;;;;;38.08;25.65;;;4.60;92.60;;;;;;5062497;28;20060;-76
2020/12/08 05:49:20;;;;;;;38.22;25.50;;;4.60;92.50;;;;;;5074458;28;20047;-78
2020/12/08 05:51:48;;;;;;;38.05;25.23;;;4.50;92.40;;;;;;5064401;28;20492;-77
2020/12/08 05:54:19;;;;;;;38.47;26.45;;;4.50;92.50;;;;;;5072731;28;20037;-75
2020/12/08 05:56:52;;;;;;;37.50;26.58;;;4.60;92.50;;;;;;5070028;28;20054;-77
2020/12/08 05:59:25;;;;;;;35.78;24.50;;;4.60;92.60;;;;;;5065655;28;20044;-77
2020/12/08 06:01:51;;;;;;;36.17;25.67;;;4.60;92.50;;;;;;5059084;28;20028;-77
2020/12/08 06:04:17;;;;;;;39.25;26.27;;;4.60;92.60;;;;;;5065079;28;20399;-77
2020/12/08 06:06:50;;;;;;;37.20;25.67;;;4.60;92.50;;;;;;5069269;28;20062;-77
2020/12/08 06:09:36;;;;;;;32.63;24.52;;;4.60;92.80;;;;;;5048390;28;20554;-77
2020/12/08 06:12:15;;;;;;;42.75;27.50;;;4.60;92.60;;;;;;5070232;28;20039;-77
2020/12/08 06:14:41;;;;;;;36.90;26.08;;;4.60;92.50;;;;;;5067780;28;20044;-77
2020/12/08 06:17:07;;;;;;;38.63;25.58;;;4.60;92.60;;;;;;5059054;28;20049;-77
2020/12/08 06:19:34;;;;;;;38.35;26.55;;;4.60;92.60;;;;;;5071232;28;20042;-77
2020/12/08 06:22:10;;;;;;;37.00;26.25;;;4.60;92.50;;;;;;5064919;28;20106;-76
2020/12/08 06:24:36;;;;;;;;;;;4.60;92.50;;;;;;5065922;28;20080;-76
2020/12/08 06:27:02;;;;;;;39.95;27.95;;;4.50;91.90;;;;;;5054157;28;20000;-76
2020/12/08 06:29:55;;;;;;;40.58;27.58;;;4.60;92.50;;;;;;5041322;28;20074;-76
2020/12/08 06:32:31;;;;;;;38.88;27.80;;;4.60;92.70;;;;;;5073435;28;20094;-75
2020/12/08 06:35:18;;;;;;;41.20;28.55;;;4.60;92.50;;;;;;5043075;28;20048;-76
2020/12/08 06:38:05;;;;;;;42.92;30.35;;;4.60;92.60;;;;;;5058664;28;20036;-76
2020/12/08 06:40:52;;;;;;;38.78;27.73;;;4.60;92.60;;;;;;5050581;28;20080;-76
2020/12/08 06:43:18;;;;;;;41.35;28.27;;;4.60;92.40;;;;;;5072990;28;20434;-77
2020/12/08 06:45:44;;;;;;;36.70;26.58;;;4.60;92.60;;;;;;5065156;28;20045;-76
2020/12/08 06:48:18;;;;;;;42.72;27.40;;;4.60;92.60;;;;;;5059870;28;20480;-76
2020/12/08 06:51:14;;;;;;;36.10;26.05;;;4.60;92.50;;;;;;5067113;28;20114;-76
2020/12/08 06:53:39;;;;;;;35.78;25.55;;;4.60;92.40;;;;;;5073216;28;20040;-76
2020/12/08 06:56:32;;;;;;;36.03;25.80;;;4.60;92.60;;;;;;5057000;28;20102;-76
2020/12/08 06:58:58;;;;;;;37.92;26.92;;;4.60;92.20;;;;;;5058927;28;20090;-81
2020/12/08 07:01:25;;;;;;;35.85;25.30;;;4.70;92.30;;;;;;5057524;28;20033;-82
2020/12/08 07:04:11;;;;;;;40.28;25.27;;;4.60;92.30;;;;;;5034071;28;20042;-81
2020/12/08 07:06:39;;;;;;;36.80;26.67;;;4.60;92.30;;;;;;5061983;28;20119;-80
2020/12/08 07:09:30;;;;;;;35.47;25.73;;;4.60;92.40;;;;;;5058298;28;20048;-80
2020/12/08 07:12:16;;;;;;;39.33;25.73;;;4.60;92.30;;;;;;5059135;28;20064;-80
2020/12/08 07:15:01;;;;;;;40.00;26.90;;;4.60;92.30;;;;;;5072329;28;20102;-80
2020/12/08 07:17:29;;;;;;;35.35;25.38;;;4.60;92.30;;;;;;5054984;28;20476;-80
2020/12/08 07:19:55;;;;;;;40.50;28.02;;;4.60;92.50;;;;;;5038535;28;20098;-81
2020/12/08 07:22:21;;;;;;;39.13;28.20;;;4.60;92.40;;;;;;5072742;28;20036;-82
2020/12/08 07:24:47;;;;;;;37.67;25.95;;;4.60;92.50;;;;;;5067247;28;20041;-85
2020/12/08 07:27:13;;;;;;;43.72;28.55;;;4.60;92.40;;;;;;5067452;28;20033;-82
2020/12/08 07:29:39;;;;;;;39.40;28.08;;;4.60;92.50;;;;;;5072702;28;20395;-77
2020/12/08 07:32:28;;;;;;;;;;;4.60;92.50;;;;;;5063208;28;20393;-82
2020/12/08 07:35:18;;;;;;;39.55;25.63;;;4.60;91.90;;;;;;5049676;28;19916;-82
2020/12/08 07:37:45;;;;;;;42.03;25.63;;;4.60;92.40;;;;;;5072497;28;20047;-83
2020/12/08 07:40:39;;;;;;;36.60;25.60;;;4.60;92.70;;;;;;5071481;28;20535;-80
2020/12/08 07:43:31;;;;;;;36.20;25.25;;;4.70;92.50;;;;;;5048816;28;20048;-80
2020/12/08 07:46:03;;;;;;;39.90;26.33;;;4.70;92.40;;;;;;5066763;28;20033;-80
2020/12/08 07:49:02;;;;;;;37.33;25.70;;;4.70;92.50;;;;;;5039414;28;20045;-74
2020/12/08 07:51:29;;;;;;;40.63;25.25;;;4.60;92.30;;;;;;5068784;28;20055;-75
2020/12/08 07:53:55;;;;;;;42.95;27.23;;;4.70;92.50;;;;;;5064132;28;20106;-75
2020/12/08 07:56:28;;;;;;;38.92;26.15;;;4.70;92.40;;;;;;5066002;28;20056;-85
2020/12/08 07:58:54;;;;;;;39.97;26.15;;;4.70;92.40;;;;;;5045954;28;20056;-79
2020/12/08 08:01:19;;;;;;;38.53;26.75;;;4.70;92.60;;;;;;5071328;28;20068;-79
2020/12/08 08:03:45;;;;;;;38.70;27.15;;;4.90;92.70;;;;;;5048458;28;20507;-80
2020/12/08 08:06:17;;;;;;;40.33;26.38;;;4.70;92.60;;;;;;5042504;28;20036;-80
2020/12/08 08:08:42;;;;;;;40.13;27.48;;;4.70;92.50;;;;;;5057648;28;20033;-80
2020/12/08 08:11:08;;;;;;;40.80;27.80;;;4.70;92.40;;;;;;5061845;28;20040;-79
2020/12/08 08:13:34;;;;;;;38.00;26.65;;;4.80;92.50;;;;;;5070516;28;20036;-79
2020/12/08 08:16:00;;;;;;;42.95;27.85;;;4.80;92.50;;;;;;5076118;28;20042;-79
2020/12/08 08:18:26;;;;;;;40.42;28.20;;;4.70;92.50;;;;;;5068401;28;20395;-79
2020/12/08 08:20:53;;;;;;;38.95;27.60;;;4.80;92.40;;;;;;5064747;28;20114;-79
2020/12/08 08:23:19;;;;;;;38.67;26.63;;;4.80;92.20;;;;;;5044945;28;20025;-79
2020/12/08 08:26:09;;;;;;;42.20;26.40;;;4.80;92.30;;;;;;5029149;28;20409;-79
2020/12/08 08:28:35;;;;;;;37.55;26.52;;;4.80;92.30;;;;;;5067739;28;20036;-79
2020/12/08 08:31:21;;;;;;;38.67;25.88;;;4.80;92.30;;;;;;5062275;28;20119;-79
2020/12/08 08:34:07;;;;;;;38.88;26.70;;;4.80;92.00;;;;;;5056579;28;20081;-79
2020/12/08 08:36:32;;;;;;;35.35;25.48;;;4.80;92.10;;;;;;5074033;28;20064;-79
2020/12/08 08:39:19;;;;;;;;;;;4.90;92.00;;;;;;5056791;28;20055;-79
2020/12/08 08:41:46;;;;;;;37.10;25.13;;;4.80;91.90;;;;;;5060334;28;20299;-78
2020/12/08 08:44:54;;;;;;;35.58;26.20;;;4.80;92.10;;;;;;5046443;28;20072;-74
2020/12/08 08:47:32;;;;;;;37.88;26.13;;;4.80;91.70;;;;;;5033773;28;20049;-75
2020/12/08 08:50:00;;;;;;;33.75;25.20;;;4.80;92.10;;;;;;5074961;28;20047;-77
2020/12/08 08:52:32;;;;;;;38.00;25.92;;;4.80;92.30;;;;;;5045024;28;20033;-77
2020/12/08 08:54:59;;;;;;;36.30;25.95;;;4.80;92.10;;;;;;5051872;28;20037;-74
2020/12/08 08:57:25;;;;;;;35.20;25.70;;;4.80;92.10;;;;;;5062985;28;20029;-74
2020/12/08 09:00:11;;;;;;;36.58;25.90;;;4.80;92.10;;;;;;5054225;28;20048;-73
2020/12/08 09:02:38;;;;;;;39.38;26.23;;;4.80;92.00;;;;;;5075599;28;20043;-74
2020/12/08 09:05:24;;;;;;;35.42;25.58;;;4.80;92.10;;;;;;5061100;28;20041;-74
2020/12/08 09:08:10;;;;;;;37.45;26.73;;;4.80;91.90;;;;;;5048113;28;20065;-74
2020/12/08 09:10:56;;;;;;;36.67;25.13;;;4.90;92.10;;;;;;5044609;28;20128;-74
2020/12/08 09:13:22;;;;;;;34.67;25.42;;;4.90;92.00;;;;;;5052299;28;20163;-74
2020/12/08 09:15:48;;;;;;;33.17;24.60;;;4.90;92.00;;;;;;5043933;28;20090;-74
2020/12/08 09:18:14;;;;;;;35.97;26.45;;;4.90;92.10;;;;;;5057953;28;20037;-74
2020/12/08 09:20:39;;;;;;;37.17;26.45;;;4.90;92.00;;;;;;5061345;28;20373;-74
2020/12/08 09:23:06;;;;;;;34.90;25.75;;;4.90;91.60;;;;;;5069206;28;20115;-74
2020/12/08 09:25:32;;;;;;;38.42;26.88;;;4.90;91.40;;;;;;5059309;28;20064;-75
2020/12/08 09:27:58;;;;;;;36.30;25.63;;;4.90;91.60;;;;;;5073813;28;20040;-74
2020/12/08 09:30:25;;;;;;;36.63;25.60;;;4.90;91.90;;;;;;5046387;28;20064;-74
2020/12/08 09:33:10;;;;;;;35.75;26.23;;;5.00;92.00;;;;;;5044840;28;20131;-76
2020/12/08 09:35:39;;;;;;;39.58;27.50;;;5.10;91.90;;;;;;5056056;28;20437;-78
2020/12/08 09:38:25;;;;;;;39.55;27.23;;;5.00;92.00;;;;;;5033038;28;20064;-78
2020/12/08 09:41:12;;;;;;;34.60;26.33;;;5.10;92.00;;;;;;5060990;28;20059;-77
2020/12/08 09:43:37;;;;;;;36.10;26.88;;;5.10;92.00;;;;;;5064754;28;20036;-80
2020/12/08 09:46:23;;;;;;;36.13;27.15;;;5.10;91.80;;;;;;5045674;28;20043;-74
2020/12/08 09:48:49;;;;;;;36.65;26.38;;;5.10;91.70;;;;;;5074691;28;20032;-75
2020/12/08 09:51:15;;;;;;;38.00;26.42;;;5.10;90.90;;;;;;5073364;28;20032;-75
2020/12/08 09:53:41;;;;;;;37.58;26.88;;;5.10;91.60;;;;;;5074713;28;20555;-75
2020/12/08 09:56:08;;;;;;;41.28;27.50;;;5.10;91.80;;;;;;5073239;28;20055;-75
2020/12/08 09:58:33;;;;;;;39.03;28.15;;;5.20;91.80;;;;;;5074097;28;20510;-75
2020/12/08 10:00:59;;;;;;;35.97;28.05;;;5.30;91.90;;;;;;5073127;28;20044;-75
2020/12/08 10:03:28;;;;;;;37.42;25.95;;;5.30;91.80;;;;;;5073107;28;20044;-75
2020/12/08 10:05:53;;;;;;;37.88;27.85;;;5.30;91.90;;;;;;5074238;28;20036;-75
2020/12/08 10:08:19;;;;;;;39.33;27.65;;;5.30;91.60;;;;;;5072908;28;20081;-75
2020/12/08 10:11:07;;;;;;;40.40;27.27;;;5.30;91.70;;;;;;5073476;28;20059;-75
2020/12/08 10:13:33;;;;;;;36.53;26.52;;;5.30;91.60;;;;;;5074106;28;20070;-75
2020/12/08 10:15:59;;;;;;;38.50;28.35;;;5.40;91.60;;;;;;5074123;28;20119;-75
2020/12/08 10:18:46;;;;;;;38.20;28.20;;;5.30;91.60;;;;;;5059142;28;20490;-75
2020/12/08 10:21:31;;;;;;;38.38;27.50;;;5.40;91.50;;;;;;5073244;28;20049;-75
2020/12/08 10:23:57;;;;;;;35.10;27.17;;;5.40;91.60;;;;;;5073960;28;20551;-75
2020/12/08 10:26:43;;;;;;;37.47;27.77;;;5.40;91.80;;;;;;5059356;28;20128;-75
2020/12/08 10:29:09;;;;;;;39.30;28.98;;;5.50;91.50;;;;;;5073779;28;20499;-75
2020/12/08 10:31:34;;;;;;;38.63;28.45;;;5.40;91.30;;;;;;5073311;28;20040;-75
2020/12/08 10:34:00;;;;;;;40.50;29.17;;;5.40;91.50;;;;;;5073696;28;20033;-79
2020/12/08 10:36:26;;;;;;;36.13;28.40;;;5.50;91.70;;;;;;5072748;28;20033;-80
2020/12/08 10:38:52;;;;;;;40.35;29.02;;;5.50;91.60;;;;;;5073408;28;20060;-79
2020/12/08 10:41:22;;;;;;;40.08;28.98;;;5.50;91.60;;;;;;5073534;28;20037;-80
2020/12/08 10:44:07;;;;;;;41.80;28.75;;;5.60;91.80;;;;;;5072767;28;20070;-80
2020/12/08 10:46:53;;;;;;;41.58;28.52;;;5.60;91.70;;;;;;5072638;28;20051;-80
2020/12/08 10:49:22;;;;;;;38.22;27.73;;;5.70;91.30;;;;;;5073274;28;20462;-80
2020/12/08 10:51:50;;;;;;;39.20;28.27;;;5.70;91.20;;;;;;5073302;28;20036;-80
2020/12/08 10:54:16;;;;;;;34.80;26.63;;;5.70;91.40;;;;;;5073214;28;20032;-80
2020/12/08 10:56:42;;;;;;;34.10;25.67;;;5.70;91.30;;;;;;5055295;28;20090;-80
2020/12/08 10:59:08;;;;;;;37.65;27.00;;;5.70;91.30;;;;;;5064458;28;20085;-79
2020/12/08 11:01:56;;;;;;;34.03;27.25;;;5.70;91.30;;;;;;5052606;28;20045;-80
2020/12/08 11:04:22;;;;;;;33.78;25.20;;;5.70;91.20;;;;;;5063043;28;20051;-80
2020/12/08 11:06:48;;;;;;;34.97;25.67;;;5.80;91.10;;;;;;5073054;28;20040;-80
2020/12/08 11:09:33;;;;;;;32.58;24.70;;;5.90;91.20;;;;;;5058204;28;20048;-80
2020/12/08 11:11:59;;;;;;;35.58;25.20;;;5.80;91.10;;;;;;5071663;28;20043;-80
2020/12/08 11:14:27;;;;;;;32.80;24.67;;;5.80;91.00;;;;;;5073070;28;20033;-79
2020/12/08 11:17:13;;;;;;;32.92;24.67;;;5.70;90.80;;;;;;5071683;28;20050;-81
2020/12/08 11:19:39;;;;;;;33.33;25.65;;;5.80;91.20;;;;;;5071589;28;20040;-78
2020/12/08 11:22:05;;;;;;;31.65;23.90;;;5.70;91.00;;;;;;5071426;28;20044;-79
2020/12/08 11:24:31;;;;;;;34.83;25.58;;;5.90;91.10;;;;;;5072739;28;20037;-79
2020/12/08 11:27:18;;;;;;;33.35;24.80;;;5.90;91.20;;;;;;5057635;28;20044;-78
2020/12/08 11:29:44;;;;;;;37.20;23.95;;;5.80;91.10;;;;;;5072603;28;20111;-79
2020/12/08 11:32:30;;;;;;;;;;;5.80;91.00;;;;;;5072214;28;20045;-79
2020/12/08 11:35:16;;;;;;;31.73;23.85;;;5.80;90.20;;;;;;5071049;28;20032;-79
2020/12/08 11:37:44;;;;;;;32.08;23.92;;;5.80;91.10;;;;;;5058001;28;20054;-77
2020/12/08 11:40:12;;;;;;;31.30;24.25;;;5.80;91.10;;;;;;5067213;28;20059;-76
2020/12/08 11:42:38;;;;;;;30.50;22.13;;;5.80;91.20;;;;;;5070016;28;20040;-77
2020/12/08 11:45:04;;;;;;;30.70;23.50;;;5.90;91.20;;;;;;5051923;28;20036;-77
2020/12/08 11:47:50;;;;;;;34.28;24.10;;;5.80;91.10;;;;;;5041317;28;20048;-83
2020/12/08 11:50:15;;;;;;;31.52;22.85;;;5.90;91.50;;;;;;5062086;28;20519;-84
2020/12/08 11:52:43;;;;;;;30.83;22.67;;;5.90;91.00;;;;;;5032244;28;20037;-79
2020/12/08 11:55:09;;;;;;;31.92;23.08;;;5.90;91.00;;;;;;5050529;28;20112;-79
2020/12/08 11:57:35;;;;;;;28.92;22.75;;;5.90;91.10;;;;;;5063195;28;20041;-79
2020/12/08 12:00:08;;;;;;;31.02;22.42;;;5.90;91.00;;;;;;5057107;28;20388;-79
2020/12/08 12:02:34;;;;;;;28.77;22.15;;;5.90;91.00;;;;;;5070409;28;20547;-80
2020/12/08 12:05:02;;;;;;;30.25;22.63;;;6.00;91.10;;;;;;5064605;28;20115;-79
2020/12/08 12:07:48;;;;;;;29.63;22.95;;;6.10;91.00;;;;;;5069255;28;20068;-79
2020/12/08 12:10:14;;;;;;;30.83;23.17;;;6.00;90.80;;;;;;5068257;28;20474;-79
2020/12/08 12:12:39;;;;;;;28.20;22.20;;;6.00;91.00;;;;;;5056536;28;20033;-78
2020/12/08 12:15:05;;;;;;;32.75;22.80;;;6.00;91.10;;;;;;5051654;28;20033;-78
2020/12/08 12:17:31;;;;;;;31.17;23.83;;;6.00;90.70;;;;;;5059430;28;20047;-79
2020/12/08 12:19:57;;;;;;;27.92;22.42;;;6.10;91.00;;;;;;5061349;28;20082;-79
2020/12/08 12:22:25;;;;;;;30.70;23.60;;;6.00;90.30;;;;;;5052539;28;20055;-80
2020/12/08 12:24:51;;;;;;;31.05;22.15;;;5.90;89.90;;;;;;5061261;28;20040;-79
2020/12/08 12:27:17;;;;;;;29.83;23.63;;;6.00;90.90;;;;;;5057917;28;20405;-79
2020/12/08 12:30:04;;;;;;;32.67;23.15;;;6.00;91.00;;;;;;5048087;28;20519;-79
2020/12/08 12:32:49;;;;;;;;;;;6.00;90.90;;;;;;5043874;28;20062;-80
2020/12/08 12:35:35;;;;;;;27.63;21.48;;;5.90;90.20;;;;;;5037820;28;19963;-79
2020/12/08 12:38:21;;;;;;;27.10;21.42;;;5.90;90.70;;;;;;5064653;28;20047;-79
2020/12/08 12:40:46;;;;;;;29.95;22.77;;;6.00;90.60;;;;;;5063372;28;20045;-79
2020/12/08 12:43:13;;;;;;;29.23;22.00;;;5.90;90.50;;;;;;5071006;28;20054;-79
2020/12/08 12:45:41;;;;;;;27.15;21.80;;;5.90;90.60;;;;;;5067822;28;20515;-80
2020/12/08 12:48:06;;;;;;;28.27;21.75;;;5.90;90.90;;;;;;5054011;28;20040;-79
2020/12/08 12:50:52;;;;;;;31.15;21.80;;;5.90;90.90;;;;;;5050630;28;20052;-79
2020/12/08 12:53:18;;;;;;;26.48;20.40;;;6.00;90.90;;;;;;5051308;28;20033;-80
2020/12/08 12:55:44;;;;;;;28.23;21.75;;;6.00;91.10;;;;;;5053567;28;20036;-79
2020/12/08 12:58:09;;;;;;;26.13;20.48;;;6.00;91.10;;;;;;5057190;28;20036;-79
2020/12/08 13:00:35;;;;;;;32.17;21.40;;;6.10;91.00;;;;;;5058312;28;20067;-79
2020/12/08 13:03:01;;;;;;;27.15;21.20;;;6.20;90.90;;;;;;5058786;28;20040;-77
2020/12/08 13:05:38;;;;;;;28.50;21.05;;;6.10;90.90;;;;;;5068170;28;20040;-84
2020/12/08 13:08:24;;;;;;;30.85;22.33;;;6.10;90.90;;;;;;5058806;28;20101;-80